»·PEaware :: SWA156 KBHM-KMCO

SWA156 :: KBHM-KMCO

FLIGHT INFORMATION

Flight Status: Arrived
Operator:
Southwest Airlines
More flights by this operator :: More flights under this callsign
Pilot: Anonymous 14085 (14085)
Aircraft: BOEING 737-300
(B733)
More flights by this aircraft type
Origin: KBHM Birmingham Intl
United States
Destination: KMCO Orlando Intl
United States
More flights between these airports :: More routes between these airports
Route: MGM OTK PIGLT4
File this flight plan on PilotEdge
Remarks: PBN / A1B3B4B5D3D4 DOF / 170605 REG / N372SB EET / KZJX0026 KZMA0108 OPR / SWA RMK / TCAS SIMBRIEF
Altitude:
(Current/Filed)
33,000ft
Speed:
(Current/Filed)
447kts
Departed: 05-Jun-17 12:49 PM
Arrived: 05-Jun-17 01:59 PM
Distance/Time
Traveled:
416nm/1:09
Distance/Time
To Go:
Arrived

Flight Plot

Page will automatically refresh every two minutes.

Flight plan parsing failed; only flown route is shown


Map Options




Map Legend


Flown Route
Filed Route
Departure Airport
Arrival Airport
Navaid (VOR, NDB)
Fix

Horizontal Profiles

Position Reports

Time Latitude Longitude Heading Altitude Ground
Speed
05-Jun-17 12:47 33.554896 -86.771390 55 654ft 0kts
05-Jun-17 12:48 33.554896 -86.771390 55 654ft 0kts
05-Jun-17 12:49 33.554896 -86.771390 55 654ft 0kts
05-Jun-17 12:50 33.554896 -86.771390 55 654ft 0kts
05-Jun-17 12:51 33.566995 -86.750043 62 1464ft 165kts
05-Jun-17 12:52 33.529253 -86.716449 196 4014ft 267kts
05-Jun-17 12:53 33.453807 -86.718600 164 8244ft 294kts
05-Jun-17 12:54 33.371900 -86.690584 166 11478ft 341kts
05-Jun-17 12:55 33.277666 -86.659633 167 15070ft 363kts
05-Jun-17 12:56 33.178433 -86.627286 166 18314ft 382kts
05-Jun-17 12:57 33.076977 -86.594293 167 21218ft 399kts
05-Jun-17 12:58 32.967991 -86.558945 166 23923ft 416kts
05-Jun-17 12:59 32.858177 -86.523460 166 26457ft 427kts
05-Jun-17 13:00 32.743400 -86.486460 166 28958ft 434kts
05-Jun-17 13:01 32.629378 -86.449765 166 32024ft 420kts
05-Jun-17 13:02 32.516539 -86.413563 166 32880ft 423kts
05-Jun-17 13:03 32.404234 -86.377615 166 32859ft 421kts
05-Jun-17 13:04 32.303214 -86.345330 167 32853ft 422kts
05-Jun-17 13:05 32.199311 -86.306726 147 32835ft 427kts
05-Jun-17 13:06 32.153710 -86.178415 113 32873ft 442kts
05-Jun-17 13:07 32.100591 -86.052619 121 32887ft 438kts
05-Jun-17 13:08 32.041251 -85.923123 121 32886ft 458kts
05-Jun-17 13:09 31.980764 -85.791618 121 32887ft 458kts
05-Jun-17 13:10 31.920046 -85.660096 121 32889ft 458kts
05-Jun-17 13:11 31.866016 -85.543914 121 32888ft 458kts
05-Jun-17 13:12 31.805281 -85.413385 123 32844ft 471kts
05-Jun-17 13:13 31.743709 -85.281129 122 32897ft 491kts
05-Jun-17 13:14 31.678190 -85.141081 122 32888ft 490kts
05-Jun-17 13:15 31.612715 -85.001750 122 32890ft 490kts
05-Jun-17 13:16 31.547027 -84.862475 122 32892ft 491kts
05-Jun-17 13:17 31.481167 -84.723350 122 32888ft 490kts
05-Jun-17 13:18 31.415178 -84.584474 122 32889ft 490kts
05-Jun-17 13:19 31.349135 -84.445994 122 32917ft 490kts
05-Jun-17 13:20 31.284650 -84.311147 123 32895ft 489kts
05-Jun-17 13:21 31.214715 -84.183906 142 32888ft 489kts
05-Jun-17 13:22 31.113801 -84.073235 140 32907ft 506kts
05-Jun-17 13:23 31.016649 -83.963582 140 32879ft 487kts
05-Jun-17 13:24 30.919425 -83.854212 140 32927ft 476kts
05-Jun-17 13:25 30.829584 -83.753789 140 32918ft 479kts
05-Jun-17 13:26 30.734341 -83.647301 140 32913ft 478kts
05-Jun-17 13:27 30.638973 -83.540974 140 32915ft 478kts
05-Jun-17 13:28 30.543409 -83.434735 140 32915ft 477kts
05-Jun-17 13:29 30.450391 -83.331562 140 32890ft 478kts
05-Jun-17 13:30 30.358163 -83.229380 141 32916ft 478kts
05-Jun-17 13:31 30.262518 -83.123930 141 32192ft 476kts
05-Jun-17 13:32 30.167849 -83.019857 141 31013ft 469kts
05-Jun-17 13:33 30.074767 -82.917823 140 29728ft 460kts
05-Jun-17 13:34 29.984042 -82.818610 141 27836ft 442kts
05-Jun-17 13:35 29.897317 -82.724049 141 25958ft 428kts
05-Jun-17 13:36 29.824751 -82.645329 141 24402ft 411kts
05-Jun-17 13:37 29.744410 -82.558134 141 22802ft 389kts
05-Jun-17 13:38 29.667562 -82.474913 141 21204ft 373kts
05-Jun-17 13:39 29.593491 -82.394867 141 19609ft 360kts
05-Jun-17 13:40 29.523048 -82.318720 142 18150ft 341kts
05-Jun-17 13:41 29.456059 -82.246483 142 16746ft 323kts
05-Jun-17 13:42 29.391453 -82.177091 142 15362ft 318kts
05-Jun-17 13:43 29.328300 -82.109368 141 13973ft 310kts
05-Jun-17 13:44 29.266514 -82.043232 141 12684ft 302kts
05-Jun-17 13:45 29.205688 -81.978227 141 11696ft 298kts
05-Jun-17 13:46 29.146024 -81.914573 141 10710ft 294kts
05-Jun-17 13:47 29.086884 -81.851581 140 9718ft 289kts
05-Jun-17 13:48 29.028739 -81.789749 140 8727ft 284kts
05-Jun-17 13:49 28.971748 -81.729238 140 7734ft 279kts
05-Jun-17 13:50 28.916074 -81.670210 140 6750ft 274kts
05-Jun-17 13:51 28.864877 -81.616205 139 5784ft 270kts
05-Jun-17 13:52 28.810677 -81.559009 139 4500ft 266kts
05-Jun-17 13:53 28.757668 -81.503071 139 3385ft 256kts
05-Jun-17 13:54 28.708204 -81.450953 138 2506ft 242kts
05-Jun-17 13:55 28.661004 -81.404409 150 2376ft 222kts
05-Jun-17 13:56 28.613834 -81.365888 147 1806ft 198kts
05-Jun-17 13:57 28.570576 -81.332280 147 1547ft 185kts
05-Jun-17 13:58 28.530258 -81.300281 149 1580ft 171kts
05-Jun-17 13:59 28.488913 -81.294175 184 1314ft 137kts
05-Jun-17 14:00 28.452830 -81.295939 181 474ft 127kts
05-Jun-17 14:01 28.423159 -81.295836 187 103ft 29kts
05-Jun-17 14:02 28.424872 -81.297952 359 103ft 24kts
05-Jun-17 14:03 28.432820 -81.298043 0 103ft 23kts
05-Jun-17 14:04 28.433932 -81.299930 302 103ft 0kts
05-Jun-17 14:05 28.433932 -81.299930 302 103ft 0kts
05-Jun-17 14:06 28.433932 -81.299930 302 103ft 0kts
05-Jun-17 14:07 28.433932 -81.299930 302 103ft 0kts
05-Jun-17 14:08 28.433932 -81.299930 302 103ft 0kts
05-Jun-17 14:09 28.433932 -81.299930 302 103ft 0kts

Navigation Log

Ident Type
Flight plan parsing failed, navigation log unavailable